Time;durP1;ratioP1;P1;durP2;ratioP2;P2;SDS_P1;SDS_P2;PMS_P1;PMS_P2;Temp;Humidity;BMP_temperature;BMP_pressure;BME280_temperature;BME280_humidity;BME280_pressure;Samples;Min_cycle;Max_cycle;Signal;HPM_P1;HPM_P2
2023/08/30 00:00:46;;;;;;;13.93;12.02;;;;;;;;;;5091282;28;20047;-57
2023/08/30 00:03:13;;;;;;;13.55;12.07;;;;;;;;;;5095059;28;20044;-56
2023/08/30 00:05:40;;;;;;;17.23;11.80;;;;;;;;;;5092534;28;20048;-56
2023/08/30 00:08:06;;;;;;;13.57;12.15;;;;;;;;;;5091046;28;20048;-57
2023/08/30 00:10:32;;;;;;;23.48;12.80;;;;;;;;;;5091877;28;20399;-56
2023/08/30 00:12:59;;;;;;;15.88;12.68;;;;;;;;;;5089464;28;20036;-57
2023/08/30 00:15:25;;;;;;;15.52;12.13;;;;;;;;;;5088915;28;20043;-56
2023/08/30 00:17:51;;;;;;;13.90;11.70;;;;;;;;;;5090303;28;20036;-56
2023/08/30 00:20:18;;;;;;;13.93;12.38;;;;;;;;;;5093112;28;20119;-57
2023/08/30 00:22:44;;;;;;;14.23;12.30;;;;;;;;;;5095401;28;20058;-56
2023/08/30 00:25:11;;;;;;;15.00;12.32;;;;;;;;;;5104433;28;20545;-57
2023/08/30 00:27:37;;;;;;;13.68;11.48;;;;;;;;;;5100770;28;20118;-57
2023/08/30 00:30:04;;;;;;;17.55;11.27;;;;;;;;;;5092268;28;20105;-57
2023/08/30 00:32:30;;;;;;;16.35;11.60;;;;;;;;;;5096121;28;20040;-56
2023/08/30 00:34:56;;;;;;;12.98;11.20;;;;;;;;;;5092561;28;20127;-56
2023/08/30 00:37:22;;;;;;;17.00;11.70;;;;;;;;;;5089932;28;20484;-56
2023/08/30 00:39:48;;;;;;;13.82;11.68;;;;;;;;;;5089656;28;20036;-56
2023/08/30 00:42:14;;;;;;;16.98;12.52;;;;;;;;;;5094729;28;20048;-56
2023/08/30 00:44:41;;;;;;;15.07;13.00;;;;;;;;;;5094272;28;20365;-57
2023/08/30 00:47:07;;;;;;;14.48;12.45;;;;;;;;;;5104949;28;20036;-56
2023/08/30 00:49:33;;;;;;;15.73;12.07;;;;;;;;;;5094124;28;20210;-57
2023/08/30 00:52:01;;;;;;;15.95;12.63;;;;;;;;;;5092855;28;21929;-57
2023/08/30 00:54:28;;;;;;;15.45;11.60;;;;;;;;;;5100191;28;20051;-56
2023/08/30 00:56:55;;;;;;;13.98;11.85;;;;;;;;;;5101453;28;20067;-56
2023/08/30 00:59:22;;;;;;;15.80;12.35;;;;;;;;;;5106400;28;20044;-56
2023/08/30 01:01:48;;;;;;;14.23;12.73;;;;;;;;;;5101897;28;20126;-57
2023/08/30 01:04:14;;;;;;;16.35;14.25;;;;;;;;;;5100667;28;20040;-56
2023/08/30 01:06:41;;;;;;;17.95;14.32;;;;;;;;;;5098325;28;20189;-56
2023/08/30 01:09:08;;;;;;;15.80;13.13;;;;;;;;;;5096176;28;20088;-57
2023/08/30 01:11:46;;;;;;;14.43;12.23;;;;;;;;;;5093247;28;20072;-56
2023/08/30 01:14:23;;;;;;;15.80;11.02;;;;;;;;;;5090514;28;20109;-56
2023/08/30 01:16:49;;;;;;;16.63;10.90;;;;;;;;;;5098321;28;20066;-56
2023/08/30 01:19:34;;;;;;;14.25;12.35;;;;;;;;;;5091688;28;20177;-57
2023/08/30 01:22:05;;;;;;;20.02;11.25;;;;;;;;;;5096830;28;20093;-56
2023/08/30 01:24:40;;;;;;;15.65;11.70;;;;;;;;;;5091316;28;20111;-56
2023/08/30 01:27:10;;;;;;;12.93;11.18;;;;;;;;;;5098633;28;20098;-57
2023/08/30 01:29:41;;;;;;;14.43;11.50;;;;;;;;;;5095307;28;20160;-57
2023/08/30 01:32:09;;;;;;;13.35;11.55;;;;;;;;;;5093732;28;20117;-56
2023/08/30 01:34:36;;;;;;;14.27;11.00;;;;;;;;;;5097446;28;20062;-57
2023/08/30 01:37:03;;;;;;;14.85;11.95;;;;;;;;;;5091758;28;20031;-56
2023/08/30 01:39:30;;;;;;;14.38;10.75;;;;;;;;;;5092615;28;20063;-56
2023/08/30 01:41:58;;;;;;;13.50;11.35;;;;;;;;;;5095526;28;20119;-56
2023/08/30 01:44:31;;;;;;;14.55;11.95;;;;;;;;;;5090867;28;20356;-56
2023/08/30 01:46:58;;;;;;;13.30;11.10;;;;;;;;;;5092469;28;20463;-56
2023/08/30 01:49:25;;;;;;;17.95;12.07;;;;;;;;;;5094439;28;20052;-56
2023/08/30 01:51:52;;;;;;;16.17;11.80;;;;;;;;;;5097878;28;20038;-56
2023/08/30 01:54:19;;;;;;;13.95;11.77;;;;;;;;;;5089514;28;20055;-57
2023/08/30 01:56:45;;;;;;;13.48;11.40;;;;;;;;;;5093039;28;20036;-57
2023/08/30 01:59:12;;;;;;;17.33;11.25;;;;;;;;;;5098176;28;20127;-56
2023/08/30 02:01:38;;;;;;;15.18;11.63;;;;;;;;;;5094847;28;20528;-56
2023/08/30 02:04:05;;;;;;;15.73;11.63;;;;;;;;;;5094755;28;20051;-56
2023/08/30 02:06:51;;;;;;;18.60;13.07;;;;;;;;;;5096645;28;20123;-56
2023/08/30 02:09:38;;;;;;;16.73;11.52;;;;;;;;;;5079288;28;20063;-57
2023/08/30 02:12:06;;;;;;;16.95;12.20;;;;;;;;;;5096921;28;20065;-56
2023/08/30 02:14:32;;;;;;;14.18;11.80;;;;;;;;;;5101058;28;20063;-56
2023/08/30 02:16:59;;;;;;;16.77;13.13;;;;;;;;;;5100630;28;20048;-56
2023/08/30 02:19:25;;;;;;;16.15;12.98;;;;;;;;;;5106483;28;20126;-56
2023/08/30 02:21:52;;;;;;;14.48;12.20;;;;;;;;;;5100854;28;20557;-56
2023/08/30 02:24:18;;;;;;;15.57;11.80;;;;;;;;;;5100940;28;20115;-56
2023/08/30 02:26:44;;;;;;;17.58;12.00;;;;;;;;;;5100883;28;20050;-56
2023/08/30 02:29:10;;;;;;;14.73;11.88;;;;;;;;;;5095036;28;20476;-56
2023/08/30 02:31:36;;;;;;;14.63;11.73;;;;;;;;;;5095890;28;20434;-56
2023/08/30 02:34:03;;;;;;;18.08;12.25;;;;;;;;;;5089950;28;20051;-56
2023/08/30 02:36:29;;;;;;;17.05;12.95;;;;;;;;;;5091009;28;20071;-56
2023/08/30 02:38:55;;;;;;;15.80;12.32;;;;;;;;;;5104134;28;20044;-56
2023/08/30 02:41:21;;;;;;;15.48;11.68;;;;;;;;;;5102927;28;20036;-56
2023/08/30 02:43:47;;;;;;;15.95;12.52;;;;;;;;;;5104696;28;20058;-56
2023/08/30 02:46:14;;;;;;;18.92;12.98;;;;;;;;;;5092954;28;20173;-56
2023/08/30 02:48:40;;;;;;;18.85;12.75;;;;;;;;;;5093400;28;20048;-56
2023/08/30 02:51:06;;;;;;;17.75;13.20;;;;;;;;;;5096921;28;20126;-56
2023/08/30 02:53:32;;;;;;;18.95;14.55;;;;;;;;;;5093967;28;20056;-56
2023/08/30 02:55:58;;;;;;;17.25;13.27;;;;;;;;;;5101938;28;20087;-56
2023/08/30 02:58:24;;;;;;;17.00;14.13;;;;;;;;;;5098323;28;20066;-56
2023/08/30 03:00:51;;;;;;;17.73;13.73;;;;;;;;;;5100659;27;20172;-56
2023/08/30 03:03:17;;;;;;;19.98;15.30;;;;;;;;;;5100163;28;20047;-56
2023/08/30 03:05:43;;;;;;;17.77;13.93;;;;;;;;;;5099386;28;20410;-56
2023/08/30 03:08:09;;;;;;;17.30;14.68;;;;;;;;;;5107826;28;20051;-56
2023/08/30 03:10:35;;;;;;;19.67;14.10;;;;;;;;;;5099584;28;20122;-56
2023/08/30 03:13:02;;;;;;;19.30;13.82;;;;;;;;;;5097509;28;20104;-56
2023/08/30 03:15:28;;;;;;;19.08;14.63;;;;;;;;;;5094108;28;20046;-56
2023/08/30 03:17:54;;;;;;;20.02;13.73;;;;;;;;;;5096340;28;20036;-56
2023/08/30 03:20:20;;;;;;;18.60;14.23;;;;;;;;;;5090537;28;20048;-55
2023/08/30 03:22:47;;;;;;;18.63;14.32;;;;;;;;;;5090104;28;20124;-56
2023/08/30 03:25:13;;;;;;;19.83;14.35;;;;;;;;;;5109084;28;20050;-56
2023/08/30 03:27:39;;;;;;;20.20;14.23;;;;;;;;;;5097212;28;20135;-57
2023/08/30 03:30:06;;;;;;;19.77;14.77;;;;;;;;;;5107302;28;20108;-56
2023/08/30 03:32:32;;;;;;;20.60;15.18;;;;;;;;;;5109169;28;20101;-57
2023/08/30 03:34:58;;;;;;;19.67;14.55;;;;;;;;;;5099054;28;20040;-57
2023/08/30 03:37:25;;;;;;;20.50;15.70;;;;;;;;;;5099922;28;20119;-57
2023/08/30 03:39:51;;;;;;;18.73;15.02;;;;;;;;;;5091052;28;20039;-57
2023/08/30 03:42:17;;;;;;;21.27;15.02;;;;;;;;;;5110013;28;20044;-57
2023/08/30 03:44:43;;;;;;;20.13;15.20;;;;;;;;;;5110219;28;20048;-56
2023/08/30 03:47:10;;;;;;;22.65;14.65;;;;;;;;;;5097657;28;20498;-56
2023/08/30 03:49:36;;;;;;;21.00;14.77;;;;;;;;;;5095752;28;20064;-57
2023/08/30 03:52:02;;;;;;;21.45;14.75;;;;;;;;;;5104260;28;20048;-56
2023/08/30 03:54:29;;;;;;;18.48;14.65;;;;;;;;;;5096801;28;20048;-57
2023/08/30 03:56:55;;;;;;;20.52;15.25;;;;;;;;;;5108347;28;20179;-57
2023/08/30 03:59:22;;;;;;;21.23;16.50;;;;;;;;;;5109548;28;20066;-57
2023/08/30 04:01:49;;;;;;;24.15;17.90;;;;;;;;;;5098114;28;20380;-57
2023/08/30 04:04:15;;;;;;;24.63;17.95;;;;;;;;;;5095696;28;20045;-56
2023/08/30 04:06:41;;;;;;;23.83;17.00;;;;;;;;;;5110587;28;20050;-56
2023/08/30 04:09:08;;;;;;;31.70;19.45;;;;;;;;;;5110192;28;20047;-56
2023/08/30 04:11:34;;;;;;;24.17;18.23;;;;;;;;;;5110073;28;20054;-56
2023/08/30 04:14:00;;;;;;;25.13;18.60;;;;;;;;;;5097973;28;20098;-56
2023/08/30 04:16:26;;;;;;;26.30;18.45;;;;;;;;;;5091244;28;20080;-57
2023/08/30 04:18:53;;;;;;;26.00;18.88;;;;;;;;;;5104905;28;20533;-56
2023/08/30 04:21:19;;;;;;;31.52;19.15;;;;;;;;;;5117556;27;20035;-57
2023/08/30 04:23:45;;;;;;;26.95;18.65;;;;;;;;;;5108264;27;20055;-56
2023/08/30 04:26:11;;;;;;;27.50;18.67;;;;;;;;;;5116089;27;20043;-56
2023/08/30 04:28:37;;;;;;;29.73;19.23;;;;;;;;;;5107734;27;20036;-56
2023/08/30 04:31:04;;;;;;;24.23;17.02;;;;;;;;;;5106140;28;20050;-57
2023/08/30 04:33:30;;;;;;;25.13;18.27;;;;;;;;;;5104213;28;20066;-56
2023/08/30 04:35:56;;;;;;;24.60;18.13;;;;;;;;;;5107384;28;20086;-56
2023/08/30 04:38:22;;;;;;;26.00;18.10;;;;;;;;;;5115317;27;20303;-56
2023/08/30 04:40:48;;;;;;;26.73;17.60;;;;;;;;;;5117522;27;20043;-56
2023/08/30 04:43:15;;;;;;;25.13;17.33;;;;;;;;;;5111428;27;20043;-56
2023/08/30 04:45:41;;;;;;;25.83;18.65;;;;;;;;;;5111194;28;20042;-57
2023/08/30 04:48:07;;;;;;;23.98;17.90;;;;;;;;;;5106599;27;20040;-56
2023/08/30 04:50:33;;;;;;;28.05;18.58;;;;;;;;;;5107944;28;20096;-56
2023/08/30 04:53:00;;;;;;;24.27;17.52;;;;;;;;;;5114122;27;20048;-56
2023/08/30 04:55:28;;;;;;;25.08;17.02;;;;;;;;;;5100003;28;20051;-56
2023/08/30 04:57:55;;;;;;;24.45;17.83;;;;;;;;;;5109282;27;20044;-57
2023/08/30 05:00:21;;;;;;;26.55;17.85;;;;;;;;;;5103869;28;20464;-57
2023/08/30 05:02:47;;;;;;;23.45;17.35;;;;;;;;;;5113300;27;20062;-57
2023/08/30 05:05:15;;;;;;;27.58;18.80;;;;;;;;;;5105952;28;20032;-56
2023/08/30 05:07:41;;;;;;;25.83;18.63;;;;;;;;;;5110872;28;20044;-56
2023/08/30 05:10:07;;;;;;;26.80;18.00;;;;;;;;;;5104399;27;20063;-56
2023/08/30 05:12:35;;;;;;;28.48;19.17;;;;;;;;;;5105145;28;20032;-56
2023/08/30 05:15:01;;;;;;;25.45;18.65;;;;;;;;;;5095333;28;20072;-56
2023/08/30 05:17:30;;;;;;;22.80;17.45;;;;;;;;;;5090177;28;20048;-56
2023/08/30 05:19:56;;;;;;;26.45;17.98;;;;;;;;;;5094545;28;20040;-56
2023/08/30 05:22:22;;;;;;;24.05;17.15;;;;;;;;;;5095565;28;20059;-56
2023/08/30 05:24:49;;;;;;;26.13;18.23;;;;;;;;;;5115028;27;20394;-56
2023/08/30 05:27:17;;;;;;;26.98;18.15;;;;;;;;;;5108481;27;20060;-56
2023/08/30 05:29:43;;;;;;;29.30;17.95;;;;;;;;;;5093780;28;20067;-57
2023/08/30 05:32:09;;;;;;;32.00;19.92;;;;;;;;;;5113528;28;20506;-56
2023/08/30 05:34:35;;;;;;;25.00;17.70;;;;;;;;;;5103093;28;20052;-56
2023/08/30 05:37:02;;;;;;;26.73;18.90;;;;;;;;;;5097260;28;20084;-56
2023/08/30 05:39:28;;;;;;;26.42;18.35;;;;;;;;;;5087690;28;20036;-56
2023/08/30 05:41:54;;;;;;;27.35;18.55;;;;;;;;;;5089333;28;20075;-57
2023/08/30 05:44:21;;;;;;;28.65;18.05;;;;;;;;;;5110107;28;20446;-56
2023/08/30 05:46:47;;;;;;;31.80;18.40;;;;;;;;;;5106077;28;20051;-56
2023/08/30 05:49:13;;;;;;;22.58;16.67;;;;;;;;;;5110882;28;20077;-56
2023/08/30 05:51:39;;;;;;;25.02;17.13;;;;;;;;;;5103848;28;20039;-57
2023/08/30 05:54:05;;;;;;;25.75;17.08;;;;;;;;;;5103146;28;20073;-56
2023/08/30 05:56:32;;;;;;;22.38;16.05;;;;;;;;;;5102970;28;20123;-57
2023/08/30 05:58:58;;;;;;;24.92;17.42;;;;;;;;;;5101030;28;20036;-56
2023/08/30 06:01:24;;;;;;;25.85;16.55;;;;;;;;;;5096871;28;20069;-57
2023/08/30 06:03:51;;;;;;;24.25;17.15;;;;;;;;;;5095613;28;20039;-56
2023/08/30 06:06:17;;;;;;;24.73;16.58;;;;;;;;;;5094417;28;20047;-56
2023/08/30 06:08:43;;;;;;;21.88;15.60;;;;;;;;;;5113238;27;20088;-56
2023/08/30 06:11:09;;;;;;;27.80;17.40;;;;;;;;;;5095382;28;20121;-57
2023/08/30 06:13:36;;;;;;;25.05;16.13;;;;;;;;;;5088574;28;20043;-55
2023/08/30 06:16:02;;;;;;;22.65;15.98;;;;;;;;;;5089685;28;20063;-57
2023/08/30 06:18:32;;;;;;;23.45;16.25;;;;;;;;;;5085129;28;20163;-56
2023/08/30 06:20:58;;;;;;;24.23;15.93;;;;;;;;;;5088347;28;20044;-56
2023/08/30 06:23:24;;;;;;;24.33;16.48;;;;;;;;;;5094878;28;20035;-57
2023/08/30 06:25:54;;;;;;;23.15;15.65;;;;;;;;;;5107571;28;20104;-56
2023/08/30 06:28:21;;;;;;;26.77;16.83;;;;;;;;;;5096732;28;20043;-56
2023/08/30 06:30:47;;;;;;;22.83;15.77;;;;;;;;;;5107677;28;20483;-57
2023/08/30 06:33:13;;;;;;;21.55;16.10;;;;;;;;;;5111517;28;20088;-57
2023/08/30 06:35:39;;;;;;;20.50;15.40;;;;;;;;;;5112650;28;20051;-57
2023/08/30 06:38:05;;;;;;;24.08;15.95;;;;;;;;;;5095970;27;20379;-57
2023/08/30 06:40:32;;;;;;;20.52;15.23;;;;;;;;;;5110823;28;20050;-57
2023/08/30 06:42:59;;;;;;;22.15;14.45;;;;;;;;;;5110257;28;20044;-58
2023/08/30 06:45:25;;;;;;;23.65;14.18;;;;;;;;;;5092603;28;20180;-57
2023/08/30 06:47:54;;;;;;;19.45;14.20;;;;;;;;;;5098311;28;20040;-57
2023/08/30 06:50:20;;;;;;;20.38;13.63;;;;;;;;;;5104129;28;20059;-57
2023/08/30 06:52:47;;;;;;;18.55;13.55;;;;;;;;;;5098777;28;20059;-57
2023/08/30 06:55:13;;;;;;;17.48;13.57;;;;;;;;;;5112306;28;20058;-58
2023/08/30 06:57:39;;;;;;;19.02;13.02;;;;;;;;;;5104771;28;20036;-57
2023/08/30 07:00:08;;;;;;;19.55;13.70;;;;;;;;;;5101106;28;20086;-57
2023/08/30 07:02:37;;;;;;;19.45;14.90;;;;;;;;;;5096672;28;20396;-57
2023/08/30 07:05:04;;;;;;;16.00;11.95;;;;;;;;;;5107273;28;20043;-57
2023/08/30 07:07:31;;;;;;;19.55;12.82;;;;;;;;;;5105082;28;20476;-57
2023/08/30 07:09:57;;;;;;;18.83;12.48;;;;;;;;;;5110196;28;20131;-58
2023/08/30 07:12:24;;;;;;;19.85;13.15;;;;;;;;;;5101181;28;20506;-57
2023/08/30 07:14:50;;;;;;;17.75;11.75;;;;;;;;;;5107716;28;20371;-57
2023/08/30 07:17:16;;;;;;;19.40;12.65;;;;;;;;;;5111846;28;20115;-57
2023/08/30 07:19:42;;;;;;;18.42;12.48;;;;;;;;;;5098317;28;20047;-58
2023/08/30 07:22:08;;;;;;;15.30;10.73;;;;;;;;;;5111810;28;20079;-57
2023/08/30 07:24:35;;;;;;;19.42;11.45;;;;;;;;;;5108328;28;20451;-57
2023/08/30 07:27:01;;;;;;;16.65;11.65;;;;;;;;;;5110212;28;20070;-58
2023/08/30 07:29:27;;;;;;;16.50;10.77;;;;;;;;;;5111669;27;20055;-57
2023/08/30 07:31:54;;;;;;;16.35;11.05;;;;;;;;;;5111601;28;20491;-57
2023/08/30 07:34:20;;;;;;;14.40;11.05;;;;;;;;;;5098043;28;20399;-58
2023/08/30 07:36:47;;;;;;;16.65;11.27;;;;;;;;;;5087452;28;20380;-58
2023/08/30 07:39:13;;;;;;;24.65;12.23;;;;;;;;;;5108267;28;20043;-58
2023/08/30 07:41:39;;;;;;;15.85;10.40;;;;;;;;;;5110889;28;20039;-58
2023/08/30 07:44:05;;;;;;;15.98;11.50;;;;;;;;;;5111598;28;20047;-58
2023/08/30 07:46:31;;;;;;;17.77;11.00;;;;;;;;;;5101773;28;20139;-58
2023/08/30 07:48:58;;;;;;;16.90;11.43;;;;;;;;;;5108597;28;20042;-58
2023/08/30 07:51:24;;;;;;;17.95;12.00;;;;;;;;;;5110976;28;20487;-58
2023/08/30 07:53:50;;;;;;;17.90;12.48;;;;;;;;;;5110519;28;20051;-58
2023/08/30 07:56:16;;;;;;;18.98;12.52;;;;;;;;;;5101694;28;20047;-58
2023/08/30 07:58:42;;;;;;;18.60;11.70;;;;;;;;;;5110988;28;20093;-58
2023/08/30 08:01:09;;;;;;;18.30;11.35;;;;;;;;;;5111239;28;20035;-58
2023/08/30 08:03:35;;;;;;;18.33;12.30;;;;;;;;;;5110382;28;20139;-58
2023/08/30 08:06:01;;;;;;;18.55;12.25;;;;;;;;;;5096275;28;20043;-58
2023/08/30 08:08:27;;;;;;;14.20;10.23;;;;;;;;;;5089854;28;20091;-58
2023/08/30 08:10:53;;;;;;;17.75;11.57;;;;;;;;;;5103131;28;20039;-58
2023/08/30 08:13:20;;;;;;;17.38;11.65;;;;;;;;;;5111035;28;20112;-58
2023/08/30 08:15:46;;;;;;;16.45;10.77;;;;;;;;;;5098367;28;20074;-58
2023/08/30 08:18:12;;;;;;;17.20;12.20;;;;;;;;;;5123406;28;20051;-58
2023/08/30 08:20:39;;;;;;;16.90;11.05;;;;;;;;;;5111013;28;20035;-58
2023/08/30 08:23:05;;;;;;;14.57;10.18;;;;;;;;;;5110001;28;20131;-58
2023/08/30 08:25:31;;;;;;;17.40;11.50;;;;;;;;;;5101979;28;20507;-58
2023/08/30 08:27:57;;;;;;;19.67;11.13;;;;;;;;;;5099478;28;20181;-58
2023/08/30 08:30:24;;;;;;;16.95;10.60;;;;;;;;;;5125033;28;20355;-58
2023/08/30 08:32:50;;;;;;;17.30;11.25;;;;;;;;;;5110795;28;20425;-58
2023/08/30 08:35:16;;;;;;;16.95;11.75;;;;;;;;;;5106988;28;20475;-58
2023/08/30 08:37:42;;;;;;;16.15;11.93;;;;;;;;;;5096868;28;20036;-58
2023/08/30 08:40:09;;;;;;;17.38;11.07;;;;;;;;;;5106316;28;20539;-58
2023/08/30 08:42:36;;;;;;;15.13;10.93;;;;;;;;;;5111064;28;20039;-58
2023/08/30 08:45:05;;;;;;;17.27;11.23;;;;;;;;;;5104575;28;20076;-58
2023/08/30 08:47:32;;;;;;;15.73;11.05;;;;;;;;;;5082929;28;20055;-58
2023/08/30 08:49:58;;;;;;;14.63;10.68;;;;;;;;;;5110591;28;20075;-58
2023/08/30 08:52:25;;;;;;;19.02;11.75;;;;;;;;;;5109597;28;20070;-58
2023/08/30 08:54:52;;;;;;;14.38;10.73;;;;;;;;;;5107417;28;20341;-57
2023/08/30 08:57:18;;;;;;;17.02;11.30;;;;;;;;;;5099928;28;20123;-58
2023/08/30 08:59:44;;;;;;;14.32;9.90;;;;;;;;;;5109882;28;20063;-58
2023/08/30 09:02:12;;;;;;;16.58;10.40;;;;;;;;;;5103571;28;20082;-58
2023/08/30 09:04:39;;;;;;;13.55;9.02;;;;;;;;;;5104516;28;20127;-58
2023/08/30 09:07:06;;;;;;;12.30;9.05;;;;;;;;;;5102897;28;20064;-58
2023/08/30 09:09:34;;;;;;;13.57;8.45;;;;;;;;;;5098172;28;20372;-57
2023/08/30 09:12:00;;;;;;;12.98;7.18;;;;;;;;;;5104857;28;20028;-57
2023/08/30 09:14:26;;;;;;;12.60;7.70;;;;;;;;;;5108427;28;20043;-57
2023/08/30 09:16:55;;;;;;;10.18;6.70;;;;;;;;;;5112941;28;20076;-57
2023/08/30 09:19:22;;;;;;;11.02;7.00;;;;;;;;;;5106089;27;20385;-57
2023/08/30 09:21:55;;;;;;;10.23;6.65;;;;;;;;;;5112503;28;20540;-57
2023/08/30 09:24:21;;;;;;;9.82;5.97;;;;;;;;;;5114108;27;20066;-57
2023/08/30 09:26:51;;;;;;;8.43;6.53;;;;;;;;;;5096862;28;20118;-57
2023/08/30 09:29:18;;;;;;;9.55;5.63;;;;;;;;;;5096972;28;20186;-57
2023/08/30 09:31:45;;;;;;;11.18;6.07;;;;;;;;;;5097586;28;20468;-57
2023/08/30 09:34:11;;;;;;;8.95;5.72;;;;;;;;;;5103316;28;20028;-57
2023/08/30 09:36:48;;;;;;;8.82;5.45;;;;;;;;;;5096428;28;20470;-57
2023/08/30 09:39:15;;;;;;;12.40;6.40;;;;;;;;;;5106964;28;20090;-57
2023/08/30 09:41:42;;;;;;;11.18;7.43;;;;;;;;;;5097238;28;20054;-57
2023/08/30 09:44:14;;;;;;;10.50;6.90;;;;;;;;;;5113580;28;20036;-57
2023/08/30 09:46:44;;;;;;;12.15;6.68;;;;;;;;;;5113770;28;20146;-57
2023/08/30 09:49:10;;;;;;;13.85;7.00;;;;;;;;;;5106335;27;20119;-57
2023/08/30 09:51:38;;;;;;;11.63;7.03;;;;;;;;;;5105299;28;20234;-57
2023/08/30 09:54:05;;;;;;;11.98;7.72;;;;;;;;;;5113163;28;20111;-57
2023/08/30 09:56:33;;;;;;;11.10;6.97;;;;;;;;;;5103355;28;20058;-57
2023/08/30 09:59:00;;;;;;;11.75;8.90;;;;;;;;;;5109870;28;20491;-57
2023/08/30 10:01:27;;;;;;;11.80;8.13;;;;;;;;;;5096199;28;20508;-56
2023/08/30 10:03:55;;;;;;;12.68;9.43;;;;;;;;;;5094183;28;20054;-56
2023/08/30 10:06:23;;;;;;;17.08;10.07;;;;;;;;;;5093100;28;20487;-56
2023/08/30 10:08:49;;;;;;;11.05;8.50;;;;;;;;;;5095756;28;20055;-56
2023/08/30 10:11:17;;;;;;;13.60;7.40;;;;;;;;;;5091622;28;20040;-56
2023/08/30 10:13:43;;;;;;;10.00;7.38;;;;;;;;;;5099411;28;20067;-57
2023/08/30 10:16:12;;;;;;;12.63;8.75;;;;;;;;;;5107728;28;20043;-56
2023/08/30 10:18:40;;;;;;;13.23;8.73;;;;;;;;;;5112994;28;20102;-56
2023/08/30 10:21:08;;;;;;;12.07;8.77;;;;;;;;;;5113262;28;20575;-57
2023/08/30 10:23:35;;;;;;;12.32;9.20;;;;;;;;;;5098272;28;20036;-57
2023/08/30 10:26:03;;;;;;;13.43;9.38;;;;;;;;;;5089862;28;20048;-57
2023/08/30 10:28:30;;;;;;;14.27;9.88;;;;;;;;;;5095484;28;20039;-56
2023/08/30 10:30:56;;;;;;;13.68;9.35;;;;;;;;;;5112098;28;20079;-57
2023/08/30 10:33:25;;;;;;;16.92;10.32;;;;;;;;;;5104996;28;20036;-57
2023/08/30 10:35:54;;;;;;;13.60;10.07;;;;;;;;;;5107095;28;20051;-57
2023/08/30 10:38:27;;;;;;;15.23;10.73;;;;;;;;;;5105056;28;20058;-57
2023/08/30 10:40:53;;;;;;;16.27;10.25;;;;;;;;;;5112930;28;20096;-57
2023/08/30 10:43:30;;;;;;;13.52;6.97;;;;;;;;;;5097333;28;20044;-57
2023/08/30 10:46:03;;;;;;;9.73;6.22;;;;;;;;;;5086648;28;20042;-57
2023/08/30 10:48:39;;;;;;;9.13;6.25;;;;;;;;;;5112374;28;20044;-56
2023/08/30 10:51:07;;;;;;;11.05;7.45;;;;;;;;;;5106006;28;20059;-57
2023/08/30 10:53:33;;;;;;;9.30;6.90;;;;;;;;;;5112294;28;20048;-57
2023/08/30 10:56:11;;;;;;;12.05;7.40;;;;;;;;;;5112445;27;20070;-57
2023/08/30 10:58:42;;;;;;;10.50;7.80;;;;;;;;;;5107864;27;20499;-57
2023/08/30 11:01:12;;;;;;;13.07;7.82;;;;;;;;;;5089556;28;20043;-57
2023/08/30 11:03:38;;;;;;;10.77;7.10;;;;;;;;;;5112125;28;20081;-56
2023/08/30 11:06:05;;;;;;;12.80;7.30;;;;;;;;;;5099717;28;20456;-57
2023/08/30 11:08:31;;;;;;;12.55;8.07;;;;;;;;;;5101349;28;20044;-57
2023/08/30 11:11:04;;;;;;;9.95;7.65;;;;;;;;;;5105099;28;20043;-57
2023/08/30 11:13:30;;;;;;;10.45;7.80;;;;;;;;;;5097568;28;20479;-57
2023/08/30 11:16:04;;;;;;;12.18;7.63;;;;;;;;;;5095500;28;20070;-57
2023/08/30 11:18:41;;;;;;;11.25;7.80;;;;;;;;;;5110972;28;20069;-57
2023/08/30 11:21:09;;;;;;;13.40;7.68;;;;;;;;;;5111857;28;20067;-57
2023/08/30 11:23:35;;;;;;;10.68;7.55;;;;;;;;;;5111640;28;20047;-57
2023/08/30 11:26:03;;;;;;;9.43;6.93;;;;;;;;;;5099191;28;20488;-56
2023/08/30 11:28:30;;;;;;;9.50;7.22;;;;;;;;;;5109081;28;20118;-57
2023/08/30 11:30:56;;;;;;;9.48;7.43;;;;;;;;;;5111768;28;20462;-57
2023/08/30 11:33:22;;;;;;;11.95;8.95;;;;;;;;;;5101753;28;20040;-57
2023/08/30 11:35:50;;;;;;;14.68;9.55;;;;;;;;;;5088980;28;20185;-57
2023/08/30 11:38:16;;;;;;;14.43;7.90;;;;;;;;;;5094471;28;20111;-57
2023/08/30 11:40:42;;;;;;;12.48;8.95;;;;;;;;;;5110852;28;20119;-58
2023/08/30 11:43:09;;;;;;;11.80;8.90;;;;;;;;;;5103091;28;20048;-57
2023/08/30 11:45:35;;;;;;;12.27;8.68;;;;;;;;;;5103444;28;20101;-58
2023/08/30 11:48:01;;;;;;;13.32;8.88;;;;;;;;;;5100679;28;20062;-58
2023/08/30 11:50:28;;;;;;;12.98;9.90;;;;;;;;;;5111227;28;20145;-57
2023/08/30 11:52:54;;;;;;;14.63;9.88;;;;;;;;;;5111215;28;20131;-58
2023/08/30 11:55:21;;;;;;;12.50;8.77;;;;;;;;;;5104427;27;20051;-58
2023/08/30 11:57:51;;;;;;;13.82;9.55;;;;;;;;;;5097587;28;20487;-57
2023/08/30 12:00:19;;;;;;;11.18;8.70;;;;;;;;;;5104633;28;20090;-57
2023/08/30 12:02:46;;;;;;;13.45;9.48;;;;;;;;;;5097949;28;20119;-58
2023/08/30 12:05:13;;;;;;;12.85;8.55;;;;;;;;;;5102784;28;20039;-57
2023/08/30 12:07:40;;;;;;;14.10;10.10;;;;;;;;;;5105408;28;20042;-58
2023/08/30 12:10:10;;;;;;;14.02;9.98;;;;;;;;;;5091022;28;20048;-57
2023/08/30 12:12:37;;;;;;;15.18;9.32;;;;;;;;;;5103827;28;20051;-57
2023/08/30 12:15:12;;;;;;;16.90;10.05;;;;;;;;;;5110224;28;20032;-58
2023/08/30 12:17:39;;;;;;;14.18;10.48;;;;;;;;;;5111152;28;20187;-57
2023/08/30 12:20:06;;;;;;;18.20;10.90;;;;;;;;;;5107433;28;20063;-57
2023/08/30 12:22:38;;;;;;;14.43;11.23;;;;;;;;;;5103243;28;20048;-57
2023/08/30 12:25:05;;;;;;;13.23;10.20;;;;;;;;;;5111144;28;20035;-58
2023/08/30 12:27:31;;;;;;;18.23;12.13;;;;;;;;;;5101186;28;20099;-58
2023/08/30 12:29:57;;;;;;;15.13;11.05;;;;;;;;;;5105483;28;20051;-58
2023/08/30 12:32:23;;;;;;;17.30;10.35;;;;;;;;;;5111070;28;20051;-58
2023/08/30 12:34:50;;;;;;;16.15;10.85;;;;;;;;;;5096889;28;20036;-58
2023/08/30 12:37:16;;;;;;;10.70;8.80;;;;;;;;;;5091067;28;20509;-58
2023/08/30 12:39:42;;;;;;;12.05;8.27;;;;;;;;;;5105302;28;20390;-58
2023/08/30 12:42:10;;;;;;;11.82;8.10;;;;;;;;;;5114788;28;20039;-58
2023/08/30 12:44:37;;;;;;;11.38;8.98;;;;;;;;;;5114246;28;20054;-58
2023/08/30 12:47:03;;;;;;;13.23;7.78;;;;;;;;;;5101401;28;20036;-58
2023/08/30 12:49:30;;;;;;;10.80;7.47;;;;;;;;;;5114668;28;20126;-58
2023/08/30 12:51:56;;;;;;;9.60;7.47;;;;;;;;;;5113727;28;20429;-58
2023/08/30 12:54:22;;;;;;;6.60;4.22;;;;;;;;;;5109406;28;20442;-58
2023/08/30 12:56:48;;;;;;;6.20;3.53;;;;;;;;;;5107087;28;20110;-58
2023/08/30 12:59:14;;;;;;;5.82;3.30;;;;;;;;;;5112314;28;20040;-57
2023/08/30 13:01:40;;;;;;;6.45;4.18;;;;;;;;;;5114606;28;20418;-58
2023/08/30 13:04:07;;;;;;;5.88;4.10;;;;;;;;;;5105043;28;20126;-57
2023/08/30 13:06:33;;;;;;;5.28;3.88;;;;;;;;;;5111046;28;20439;-58
2023/08/30 13:08:59;;;;;;;5.50;4.32;;;;;;;;;;5114578;28;20036;-58
2023/08/30 13:11:28;;;;;;;6.65;4.80;;;;;;;;;;5113557;28;20039;-58
2023/08/30 13:13:54;;;;;;;8.13;5.63;;;;;;;;;;5108775;28;20044;-58
2023/08/30 13:16:20;;;;;;;8.73;5.50;;;;;;;;;;5108686;28;20039;-58
2023/08/30 13:18:46;;;;;;;8.68;5.93;;;;;;;;;;5113435;27;20056;-58
2023/08/30 13:21:12;;;;;;;9.23;6.88;;;;;;;;;;5114068;28;20084;-57
2023/08/30 13:23:39;;;;;;;9.90;7.78;;;;;;;;;;5099970;28;20467;-57
2023/08/30 13:26:05;;;;;;;8.43;6.38;;;;;;;;;;5097572;28;20043;-57
2023/08/30 13:28:31;;;;;;;10.07;7.07;;;;;;;;;;5110566;28;20169;-58
2023/08/30 13:30:57;;;;;;;10.48;6.43;;;;;;;;;;5113880;28;20119;-58
2023/08/30 13:33:23;;;;;;;7.82;6.00;;;;;;;;;;5105863;28;20055;-58
2023/08/30 13:35:51;;;;;;;8.00;6.32;;;;;;;;;;5106537;28;20429;-58
2023/08/30 13:38:17;;;;;;;10.10;6.22;;;;;;;;;;5109412;28;20039;-58
2023/08/30 13:40:44;;;;;;;7.68;6.40;;;;;;;;;;5113120;28;20032;-58
2023/08/30 13:43:10;;;;;;;8.55;6.68;;;;;;;;;;5104753;28;20063;-58
2023/08/30 13:45:36;;;;;;;9.88;7.13;;;;;;;;;;5095976;28;20046;-57
2023/08/30 13:48:03;;;;;;;8.02;6.50;;;;;;;;;;5102459;28;20065;-58
2023/08/30 13:50:31;;;;;;;8.68;6.57;;;;;;;;;;5104793;28;20044;-58
2023/08/30 13:52:58;;;;;;;10.85;6.32;;;;;;;;;;5099337;28;20117;-58
2023/08/30 13:55:24;;;;;;;8.98;6.90;;;;;;;;;;5092395;27;20439;-58
2023/08/30 13:57:51;;;;;;;7.40;6.18;;;;;;;;;;5105480;28;20063;-58
2023/08/30 14:00:17;;;;;;;8.55;5.95;;;;;;;;;;5092609;28;20097;-58
2023/08/30 14:02:43;;;;;;;9.40;7.00;;;;;;;;;;5095056;28;20516;-58
2023/08/30 14:05:10;;;;;;;9.25;6.13;;;;;;;;;;5103813;28;20134;-58
2023/08/30 14:07:36;;;;;;;8.75;5.90;;;;;;;;;;5105000;28;20043;-58
2023/08/30 14:10:02;;;;;;;6.60;4.78;;;;;;;;;;5096853;28;20043;-58
2023/08/30 14:12:29;;;;;;;6.90;4.47;;;;;;;;;;5113154;28;20164;-57
2023/08/30 14:14:55;;;;;;;8.30;4.80;;;;;;;;;;5101060;28;20040;-58
2023/08/30 14:17:21;;;;;;;7.22;4.85;;;;;;;;;;5091688;28;20040;-58
2023/08/30 14:19:47;;;;;;;8.10;4.55;;;;;;;;;;5107937;28;20047;-58
2023/08/30 14:22:13;;;;;;;8.20;4.88;;;;;;;;;;5097411;28;20032;-59